createdAt,value
2023-03-31T00:01:40.158Z,5.47
2023-03-31T00:04:12.160Z,5.53
2023-03-31T00:06:43.868Z,5.82
2023-03-31T00:09:15.718Z,5.57
2023-03-31T00:11:47.399Z,5.35
2023-03-31T00:14:20.805Z,4.88
2023-03-31T00:16:52.466Z,4.53
2023-03-31T00:19:24.109Z,5.47
2023-03-31T00:21:55.601Z,4.50
2023-03-31T00:24:27.148Z,4.72
2023-03-31T00:27:05.558Z,4.43
2023-03-31T00:29:37.434Z,5.15
2023-03-31T00:32:09.429Z,5.03
2023-03-31T00:34:40.970Z,4.53
2023-03-31T00:37:12.500Z,4.65
2023-03-31T00:39:44.034Z,4.13
2023-03-31T00:42:15.563Z,4.15
2023-03-31T00:45:15.087Z,3.60
2023-03-31T00:47:55.447Z,3.85
2023-03-31T00:50:30.527Z,3.83
2023-03-31T00:53:12.671Z,4.03
2023-03-31T00:55:49.362Z,3.50
2023-03-31T00:58:23.570Z,3.72
2023-03-31T01:00:58.238Z,3.75
2023-03-31T01:03:32.451Z,3.53
2023-03-31T01:06:07.185Z,3.55
2023-03-31T01:08:40.133Z,4.05
2023-03-31T01:11:14.032Z,3.90
2023-03-31T01:13:46.407Z,4.55
2023-03-31T01:16:18.754Z,4.28
2023-03-31T01:18:50.853Z,4.15
2023-03-31T01:22:05.205Z,4.50
2023-03-31T01:24:55.073Z,4.38
2023-03-31T01:27:49.930Z,5.15
2023-03-31T01:30:37.108Z,5.00
2023-03-31T01:33:45.895Z,4.40
2023-03-31T01:36:35.711Z,4.97
2023-03-31T01:39:28.948Z,4.77
2023-03-31T01:42:25.664Z,4.60
2023-03-31T01:45:12.481Z,5.05
2023-03-31T01:47:57.166Z,4.43
2023-03-31T01:50:38.670Z,4.38
2023-03-31T01:53:29.210Z,4.00
2023-03-31T01:56:12.616Z,3.42
2023-03-31T01:58:52.646Z,4.55
2023-03-31T02:01:31.643Z,4.13
2023-03-31T02:04:07.031Z,3.90
2023-03-31T02:06:42.831Z,4.15
2023-03-31T02:09:19.544Z,4.55
2023-03-31T02:11:53.547Z,5.03
2023-03-31T02:14:30.544Z,4.88
2023-03-31T02:17:03.587Z,4.80
2023-03-31T02:19:40.140Z,5.00
2023-03-31T02:22:14.061Z,4.93
2023-03-31T02:24:47.411Z,4.20
2023-03-31T02:27:27.541Z,4.03
2023-03-31T02:29:59.979Z,3.60
2023-03-31T02:32:37.051Z,4.10
2023-03-31T02:35:13.464Z,3.78
2023-03-31T02:37:46.291Z,3.60
2023-03-31T02:40:22.917Z,3.80
2023-03-31T02:42:54.515Z,3.33
2023-03-31T02:45:39.908Z,3.35
2023-03-31T02:48:17.267Z,3.97
2023-03-31T02:50:57.162Z,3.90
2023-03-31T02:53:40.798Z,4.38
2023-03-31T02:56:38.197Z,3.77
2023-03-31T02:59:28.550Z,3.80
2023-03-31T03:02:31.450Z,4.18
2023-03-31T03:05:29.288Z,3.75
2023-03-31T03:08:06.853Z,3.78
2023-03-31T03:11:05.592Z,4.45
2023-03-31T03:13:52.343Z,3.88
2023-03-31T03:16:37.247Z,3.45
2023-03-31T03:19:09.638Z,3.73
2023-03-31T03:21:41.203Z,2.88
2023-03-31T03:24:13.406Z,2.55
2023-03-31T03:26:45.973Z,2.33
2023-03-31T03:29:17.510Z,1.90
2023-03-31T03:31:49.081Z,1.50
2023-03-31T03:34:20.628Z,1.80
2023-03-31T03:36:52.151Z,2.05
2023-03-31T03:39:23.842Z,1.80
2023-03-31T03:41:55.362Z,1.27
2023-03-31T03:44:26.943Z,1.70
2023-03-31T03:46:58.492Z,1.73
2023-03-31T03:49:30.092Z,2.10
2023-03-31T03:52:01.725Z,2.10
2023-03-31T03:54:34.248Z,1.90
2023-03-31T03:57:05.841Z,1.50
2023-03-31T03:59:37.440Z,2.17
2023-03-31T04:02:09.013Z,2.08
2023-03-31T04:04:40.689Z,1.98
2023-03-31T04:07:12.242Z,3.03
2023-03-31T04:09:43.774Z,3.13
2023-03-31T04:12:15.301Z,3.43
2023-03-31T04:14:46.833Z,4.20
2023-03-31T04:17:18.357Z,4.50
2023-03-31T04:19:49.842Z,4.45
2023-03-31T04:22:21.359Z,4.45
2023-03-31T04:24:52.950Z,4.35
2023-03-31T04:27:25.099Z,4.60
2023-03-31T04:29:57.315Z,4.70
2023-03-31T04:32:28.887Z,5.18
2023-03-31T04:35:00.433Z,4.45
2023-03-31T04:37:32.107Z,4.93
2023-03-31T04:40:03.895Z,4.60
2023-03-31T04:42:35.922Z,4.32
2023-03-31T04:45:07.910Z,4.25
2023-03-31T04:47:39.519Z,4.28
2023-03-31T04:50:14.571Z,3.75
2023-03-31T04:52:48.022Z,3.87
2023-03-31T04:55:19.550Z,4.07
2023-03-31T04:57:51.120Z,3.75
2023-03-31T05:00:23.171Z,3.40
2023-03-31T05:02:54.780Z,3.33
2023-03-31T05:05:26.410Z,3.80
2023-03-31T05:07:58.061Z,3.10
2023-03-31T05:10:30.405Z,2.80
2023-03-31T05:13:01.938Z,2.58
2023-03-31T05:15:35.040Z,2.50
2023-03-31T05:18:07.833Z,2.22
2023-03-31T05:20:39.548Z,2.35
2023-03-31T05:23:11.120Z,2.10
2023-03-31T05:25:42.638Z,2.08
2023-03-31T05:28:14.134Z,1.83
2023-03-31T05:30:45.683Z,1.85
2023-03-31T05:33:17.231Z,1.90
2023-03-31T05:35:48.851Z,1.73
2023-03-31T05:38:20.429Z,1.90
2023-03-31T05:40:51.937Z,1.33
2023-03-31T05:43:23.522Z,1.48
2023-03-31T05:45:55.058Z,1.90
2023-03-31T05:48:26.629Z,1.77
2023-03-31T05:50:59.065Z,2.03
2023-03-31T05:53:30.696Z,1.65
2023-03-31T05:56:05.865Z,2.00
2023-03-31T05:58:38.173Z,1.50
2023-03-31T06:01:17.675Z,1.90
2023-03-31T06:03:50.438Z,1.65
2023-03-31T06:06:22.976Z,1.87
2023-03-31T06:08:54.543Z,1.83
2023-03-31T06:11:26.235Z,2.13
2023-03-31T06:13:57.761Z,2.00
2023-03-31T06:16:29.363Z,2.08
2023-03-31T06:19:00.946Z,1.98
2023-03-31T06:21:32.534Z,1.70
2023-03-31T06:24:04.111Z,2.30
2023-03-31T06:26:35.757Z,2.47
2023-03-31T06:29:07.245Z,2.93
2023-03-31T06:31:38.826Z,3.20
2023-03-31T06:34:10.534Z,3.50
2023-03-31T06:36:42.124Z,2.88
2023-03-31T06:39:13.652Z,2.70
2023-03-31T06:41:45.200Z,2.78
2023-03-31T06:44:16.800Z,2.50
2023-03-31T06:46:48.503Z,2.30
2023-03-31T06:49:20.010Z,2.20
2023-03-31T06:51:51.562Z,2.20
2023-03-31T06:54:23.101Z,2.65
2023-03-31T06:56:54.726Z,2.85
2023-03-31T06:59:26.411Z,2.63
2023-03-31T07:01:58.095Z,2.47
2023-03-31T07:04:29.894Z,2.13
2023-03-31T07:07:01.892Z,2.72
2023-03-31T07:09:33.559Z,2.33
2023-03-31T07:12:05.352Z,2.70
2023-03-31T07:14:36.920Z,3.25
2023-03-31T07:17:08.473Z,3.15
2023-03-31T07:19:39.977Z,3.08
2023-03-31T07:22:11.518Z,3.17
2023-03-31T07:24:43.063Z,3.65
2023-03-31T07:27:14.578Z,3.30
2023-03-31T07:29:46.141Z,3.72
2023-03-31T07:32:17.813Z,4.35
2023-03-31T07:34:52.879Z,3.88
2023-03-31T07:37:24.496Z,4.47
2023-03-31T07:39:56.027Z,4.70
2023-03-31T07:42:27.535Z,4.17
2023-03-31T07:44:59.074Z,4.47
2023-03-31T07:47:30.601Z,4.43
2023-03-31T07:50:02.225Z,4.40
2023-03-31T07:52:33.871Z,4.43
2023-03-31T07:55:06.614Z,4.78
2023-03-31T07:57:38.295Z,4.78
2023-03-31T08:00:10.955Z,5.13
2023-03-31T08:02:43.419Z,5.65
2023-03-31T08:05:17.371Z,5.00
2023-03-31T08:07:50.153Z,4.10
2023-03-31T08:10:25.118Z,4.97
2023-03-31T08:12:56.627Z,4.22
2023-03-31T08:15:28.333Z,4.43
2023-03-31T08:17:59.972Z,4.43
2023-03-31T08:20:32.315Z,3.95
2023-03-31T08:23:03.878Z,3.85
2023-03-31T08:25:35.449Z,4.40
2023-03-31T08:28:06.996Z,4.40
2023-03-31T08:30:38.610Z,5.05
2023-03-31T08:33:10.338Z,5.28
2023-03-31T08:35:41.972Z,4.65
2023-03-31T08:38:13.497Z,5.68
2023-03-31T08:40:45.023Z,5.72
2023-03-31T08:43:27.800Z,6.03
2023-03-31T08:46:01.124Z,5.45
2023-03-31T08:48:38.343Z,6.80
2023-03-31T08:51:20.074Z,6.88
2023-03-31T08:54:00.972Z,6.18
2023-03-31T08:56:36.244Z,6.43
2023-03-31T08:59:21.037Z,6.30
2023-03-31T09:02:00.967Z,5.65
2023-03-31T09:04:50.334Z,5.73
2023-03-31T09:07:37.451Z,5.43
2023-03-31T09:10:23.527Z,5.75
2023-03-31T09:12:57.684Z,5.60
2023-03-31T09:15:51.109Z,5.15
2023-03-31T09:18:38.081Z,5.28
2023-03-31T09:21:25.525Z,5.15
2023-03-31T09:24:19.208Z,5.27
2023-03-31T09:27:07.542Z,5.55
2023-03-31T09:29:46.621Z,5.55
2023-03-31T09:32:29.973Z,5.90
2023-03-31T09:35:25.219Z,6.20
2023-03-31T09:37:56.828Z,5.70
2023-03-31T09:40:29.726Z,6.03
2023-03-31T09:43:15.982Z,6.00
2023-03-31T09:46:01.416Z,5.88
2023-03-31T09:48:40.207Z,6.15
2023-03-31T09:51:20.919Z,6.27
2023-03-31T09:54:02.746Z,6.13
2023-03-31T09:56:47.232Z,6.22
2023-03-31T09:59:21.669Z,6.18
2023-03-31T10:01:57.238Z,6.47
2023-03-31T10:04:32.781Z,5.70
2023-03-31T10:07:05.568Z,6.30
2023-03-31T10:09:39.126Z,5.82
2023-03-31T10:12:19.553Z,6.03
2023-03-31T10:14:53.615Z,6.00
2023-03-31T10:17:28.615Z,5.97
2023-03-31T10:20:13.026Z,6.07
2023-03-31T10:22:45.610Z,4.23
2023-03-31T10:25:22.359Z,4.20
2023-03-31T10:27:56.411Z,4.07
2023-03-31T10:30:36.603Z,4.75
2023-03-31T10:33:22.665Z,4.18
2023-03-31T10:36:14.476Z,4.10
2023-03-31T10:38:48.853Z,4.30
2023-03-31T10:41:23.369Z,3.65
2023-03-31T10:43:57.341Z,3.70
2023-03-31T10:46:49.167Z,3.38
2023-03-31T10:49:27.973Z,4.15
2023-03-31T10:52:00.411Z,3.50
2023-03-31T10:54:32.197Z,3.85
2023-03-31T10:57:05.872Z,3.97
2023-03-31T10:59:49.255Z,4.35
2023-03-31T11:02:37.352Z,3.88
2023-03-31T11:05:17.786Z,4.20
2023-03-31T11:08:08.169Z,3.95
2023-03-31T11:10:57.504Z,4.40
2023-03-31T11:13:44.696Z,5.18
2023-03-31T11:16:16.323Z,4.63
2023-03-31T11:19:05.983Z,4.05
2023-03-31T11:22:15.232Z,4.93
2023-03-31T11:25:20.759Z,3.97
2023-03-31T11:28:24.499Z,3.65
2023-03-31T11:31:40.991Z,3.60
2023-03-31T11:34:23.025Z,3.45
2023-03-31T11:37:06.433Z,3.33
2023-03-31T11:39:56.721Z,3.30
2023-03-31T11:42:36.362Z,3.17
2023-03-31T11:45:25.536Z,2.70
2023-03-31T11:48:01.995Z,2.97
2023-03-31T11:50:37.461Z,2.25
2023-03-31T11:53:18.448Z,3.00
2023-03-31T11:55:53.412Z,2.35
2023-03-31T11:58:37.759Z,2.50
2023-03-31T12:01:18.348Z,2.55
2023-03-31T12:03:57.390Z,2.33
2023-03-31T12:06:33.551Z,2.45
2023-03-31T12:09:14.069Z,2.78
2023-03-31T12:11:54.499Z,2.10
2023-03-31T12:15:02.009Z,2.63
2023-03-31T12:17:34.827Z,2.38
2023-03-31T12:20:14.943Z,2.63
2023-03-31T12:22:48.807Z,3.40
2023-03-31T12:25:22.294Z,3.67
2023-03-31T12:27:53.910Z,3.28
2023-03-31T12:30:36.470Z,3.80
2023-03-31T12:33:28.943Z,3.60
2023-03-31T12:36:22.064Z,4.00
2023-03-31T12:39:02.377Z,3.72
2023-03-31T12:42:00.325Z,3.55
2023-03-31T12:44:49.357Z,2.33
2023-03-31T12:47:44.046Z,2.80
2023-03-31T12:50:54.247Z,2.50
2023-03-31T12:53:50.586Z,2.50
2023-03-31T12:56:22.141Z,2.22
2023-03-31T12:58:53.892Z,2.20
2023-03-31T13:01:25.523Z,2.17
2023-03-31T13:04:21.810Z,2.30
2023-03-31T13:06:55.982Z,2.42
2023-03-31T13:09:33.468Z,2.47
2023-03-31T13:12:12.977Z,2.90
2023-03-31T13:14:47.217Z,2.47
2023-03-31T13:17:25.070Z,2.38
2023-03-31T13:20:16.851Z,1.92
2023-03-31T13:22:48.538Z,1.90
2023-03-31T13:25:41.285Z,1.90
2023-03-31T13:28:22.167Z,1.90
2023-03-31T13:31:02.770Z,2.20
2023-03-31T13:33:36.193Z,2.00
2023-03-31T13:36:30.570Z,2.17
2023-03-31T13:39:29.727Z,2.10
2023-03-31T13:42:24.707Z,2.00
2023-03-31T13:45:19.353Z,2.20
2023-03-31T13:48:03.861Z,2.58
2023-03-31T13:50:58.503Z,2.63
2023-03-31T13:53:32.835Z,2.13
2023-03-31T13:56:51.128Z,2.17
2023-03-31T13:59:49.911Z,2.60
2023-03-31T14:02:53.143Z,2.63
2023-03-31T14:05:37.320Z,2.50
2023-03-31T14:08:29.372Z,2.95
2023-03-31T14:11:23.344Z,2.47
2023-03-31T14:14:02.140Z,3.25
2023-03-31T14:16:45.872Z,2.90
2023-03-31T14:19:30.529Z,2.95
2023-03-31T14:22:17.200Z,2.95
2023-03-31T14:25:10.518Z,2.90
2023-03-31T14:27:47.690Z,3.25
2023-03-31T14:30:39.259Z,2.90
2023-03-31T14:33:24.628Z,2.47
2023-03-31T14:36:06.841Z,3.08
2023-03-31T14:38:38.516Z,2.60
2023-03-31T14:41:20.765Z,2.55
2023-03-31T14:43:53.036Z,2.55
2023-03-31T14:46:24.670Z,2.38
2023-03-31T14:48:56.164Z,2.85
2023-03-31T14:51:30.533Z,2.60
2023-03-31T14:54:02.384Z,2.88
2023-03-31T14:56:39.989Z,2.50
2023-03-31T14:59:17.296Z,2.70
2023-03-31T15:01:50.636Z,2.70
2023-03-31T15:04:35.243Z,3.58
2023-03-31T15:07:13.541Z,3.17
2023-03-31T15:09:50.467Z,2.58
2023-03-31T15:12:23.109Z,2.90
2023-03-31T15:14:58.870Z,3.20
2023-03-31T15:17:36.369Z,2.85
2023-03-31T15:20:35.283Z,3.50
2023-03-31T15:23:28.119Z,3.40
2023-03-31T15:26:09.706Z,3.43
2023-03-31T15:28:57.138Z,3.13
2023-03-31T15:31:29.115Z,3.38
2023-03-31T15:34:01.219Z,2.90
2023-03-31T15:36:32.915Z,3.37
2023-03-31T15:39:06.174Z,3.25
2023-03-31T15:41:37.745Z,3.78
2023-03-31T15:44:53.849Z,3.00
2023-03-31T15:47:29.634Z,3.65
2023-03-31T15:50:07.054Z,3.55
2023-03-31T15:52:46.894Z,3.53
2023-03-31T15:58:16.276Z,3.90
2023-03-31T16:00:52.379Z,3.53
2023-03-31T16:03:36.249Z,3.80
2023-03-31T16:06:21.096Z,3.58
2023-03-31T16:09:01.392Z,3.00
2023-03-31T16:11:49.489Z,2.47
2023-03-31T16:14:29.893Z,2.95
2023-03-31T16:17:08.734Z,2.33
2023-03-31T16:19:48.409Z,2.13
2023-03-31T16:22:24.344Z,2.72
2023-03-31T16:24:55.930Z,2.53
2023-03-31T16:27:27.615Z,2.50
2023-03-31T16:30:12.627Z,2.70
2023-03-31T16:33:10.227Z,2.63
2023-03-31T16:35:49.998Z,3.28
2023-03-31T16:38:23.825Z,2.70
2023-03-31T16:40:57.913Z,2.65
2023-03-31T16:43:30.744Z,3.38
2023-03-31T16:46:03.547Z,3.20
2023-03-31T16:48:35.145Z,2.40
2023-03-31T16:51:06.795Z,2.50
2023-03-31T16:53:38.396Z,2.20
2023-03-31T16:56:11.030Z,2.78
2023-03-31T16:58:43.138Z,2.45
2023-03-31T17:01:14.768Z,2.22
2023-03-31T17:03:47.851Z,2.08
2023-03-31T17:06:19.626Z,3.40
2023-03-31T17:08:51.210Z,3.45
2023-03-31T17:11:22.762Z,3.83
2023-03-31T17:13:54.293Z,4.63
2023-03-31T17:16:36.135Z,4.70
2023-03-31T17:19:11.962Z,6.20
2023-03-31T17:21:43.518Z,6.53
2023-03-31T17:24:15.042Z,6.75
2023-03-31T17:26:46.632Z,6.90
2023-03-31T17:29:18.288Z,7.85
2023-03-31T17:31:49.980Z,6.63
2023-03-31T17:34:21.535Z,6.65
2023-03-31T17:36:53.154Z,7.07
2023-03-31T17:39:24.719Z,7.20
2023-03-31T17:41:56.274Z,6.65
2023-03-31T17:44:27.834Z,7.03
2023-03-31T17:46:59.340Z,7.72
2023-03-31T17:49:30.871Z,7.03
2023-03-31T17:52:02.378Z,7.70
2023-03-31T17:54:34.165Z,8.00
2023-03-31T17:57:05.819Z,7.85
2023-03-31T17:59:38.477Z,8.07
2023-03-31T18:02:13.247Z,8.73
2023-03-31T18:04:44.850Z,8.98
2023-03-31T18:07:16.670Z,8.52
2023-03-31T18:09:48.191Z,8.52
2023-03-31T18:12:19.707Z,8.82
2023-03-31T18:14:52.366Z,8.27
2023-03-31T18:17:24.276Z,8.40
2023-03-31T18:19:55.840Z,8.23
2023-03-31T18:22:27.432Z,8.82
2023-03-31T18:24:58.995Z,8.50
2023-03-31T18:27:30.539Z,7.88
2023-03-31T18:30:02.061Z,7.70
2023-03-31T18:32:33.704Z,7.55
2023-03-31T18:35:06.697Z,8.25
2023-03-31T18:37:38.276Z,8.30
2023-03-31T18:40:10.377Z,7.68
2023-03-31T18:42:42.763Z,7.05
2023-03-31T18:45:14.417Z,8.27
2023-03-31T18:47:45.992Z,5.13
2023-03-31T18:50:17.684Z,5.97
2023-03-31T18:52:50.113Z,7.50
2023-03-31T18:55:21.897Z,9.35
2023-03-31T18:57:53.415Z,10.17
2023-03-31T19:00:24.931Z,10.05
2023-03-31T19:02:56.500Z,11.23
2023-03-31T19:05:28.394Z,11.10
2023-03-31T19:08:00.123Z,11.40
2023-03-31T19:10:31.836Z,9.65
2023-03-31T19:13:03.405Z,10.15
2023-03-31T19:15:34.926Z,9.68
2023-03-31T19:18:06.516Z,10.07
2023-03-31T19:20:38.117Z,10.07
2023-03-31T19:23:09.687Z,9.27
2023-03-31T19:25:41.288Z,10.57
2023-03-31T19:28:16.110Z,9.60
2023-03-31T19:30:53.101Z,8.70
2023-03-31T19:33:26.262Z,7.67
2023-03-31T19:35:58.008Z,7.00
2023-03-31T19:38:34.160Z,6.97
2023-03-31T19:41:06.491Z,8.40
2023-03-31T19:43:38.006Z,9.25
2023-03-31T19:46:09.801Z,9.63
2023-03-31T19:48:41.518Z,9.68
2023-03-31T19:51:13.059Z,10.48
2023-03-31T19:53:45.361Z,10.30
2023-03-31T19:56:17.938Z,9.98
2023-03-31T19:58:49.498Z,10.93
2023-03-31T20:01:24.013Z,10.10
2023-03-31T20:03:56.259Z,10.20
2023-03-31T20:06:30.100Z,9.50
2023-03-31T20:09:02.675Z,9.82
2023-03-31T20:11:34.510Z,10.40
2023-03-31T20:14:06.127Z,9.77
2023-03-31T20:16:37.734Z,9.68
2023-03-31T20:19:12.012Z,8.57
2023-03-31T20:21:45.236Z,7.72
2023-03-31T20:24:18.943Z,8.07
2023-03-31T20:26:50.721Z,7.55
2023-03-31T20:29:22.304Z,8.30
2023-03-31T20:31:53.921Z,7.77
2023-03-31T20:34:25.462Z,7.68
2023-03-31T20:36:57.046Z,7.60
2023-03-31T20:39:28.633Z,7.53
2023-03-31T20:42:00.138Z,8.43
2023-03-31T20:44:31.824Z,7.70
2023-03-31T20:47:03.548Z,7.93
2023-03-31T20:49:35.199Z,8.43
2023-03-31T20:52:06.733Z,8.32
2023-03-31T20:54:38.238Z,8.48
2023-03-31T20:57:09.771Z,7.78
2023-03-31T20:59:41.309Z,8.43
2023-03-31T21:02:13.166Z,8.88
2023-03-31T21:04:44.723Z,8.18
2023-03-31T21:07:16.246Z,7.75
2023-03-31T21:09:47.771Z,9.55
2023-03-31T21:12:19.289Z,8.93
2023-03-31T21:14:50.827Z,8.25
2023-03-31T21:17:22.438Z,8.60
2023-03-31T21:19:54.010Z,7.90
2023-03-31T21:22:25.568Z,6.53
2023-03-31T21:24:57.125Z,7.30
2023-03-31T21:27:28.687Z,7.15
2023-03-31T21:30:00.303Z,7.72
2023-03-31T21:32:31.879Z,7.38
2023-03-31T21:35:03.584Z,6.55
2023-03-31T21:37:35.627Z,7.70
2023-03-31T21:40:07.879Z,7.68
2023-03-31T21:42:39.415Z,10.23
2023-03-31T21:45:11.554Z,11.45
2023-03-31T21:47:43.077Z,12.10
2023-03-31T21:50:14.797Z,12.88
2023-03-31T21:52:46.374Z,12.90
2023-03-31T21:55:17.978Z,12.73
2023-03-31T21:57:49.522Z,13.40
2023-03-31T22:00:21.059Z,14.65
2023-03-31T22:03:02.209Z,13.80
2023-03-31T22:05:42.653Z,13.93
2023-03-31T22:08:14.661Z,15.18
2023-03-31T22:10:50.920Z,15.95
2023-03-31T22:13:24.166Z,17.42
2023-03-31T22:15:56.028Z,16.23
2023-03-31T22:18:29.113Z,15.57
2023-03-31T22:21:00.702Z,16.97
2023-03-31T22:23:32.246Z,15.20
2023-03-31T22:26:03.938Z,16.13
2023-03-31T22:28:35.517Z,15.10
2023-03-31T22:31:07.193Z,14.55
2023-03-31T22:33:38.855Z,15.17
2023-03-31T22:36:10.457Z,15.75
2023-03-31T22:38:42.005Z,15.13
2023-03-31T22:41:13.630Z,16.70
2023-03-31T22:43:46.271Z,14.95
2023-03-31T22:46:18.084Z,16.65
2023-03-31T22:48:50.025Z,16.30
2023-03-31T22:51:21.584Z,16.80
2023-03-31T22:53:54.400Z,15.05
2023-03-31T22:56:26.562Z,15.13
2023-03-31T22:58:58.150Z,17.45
2023-03-31T23:01:29.941Z,17.65
2023-03-31T23:04:02.087Z,18.33
2023-03-31T23:06:36.060Z,18.08
2023-03-31T23:09:07.827Z,16.38
2023-03-31T23:11:39.419Z,17.58
2023-03-31T23:14:11.886Z,16.80
2023-03-31T23:16:43.484Z,18.98
2023-03-31T23:19:15.332Z,18.50
2023-03-31T23:21:46.880Z,18.92
2023-03-31T23:24:18.437Z,19.75
2023-03-31T23:26:49.931Z,21.45
2023-03-31T23:29:21.536Z,21.08
2023-03-31T23:31:53.083Z,20.67
2023-03-31T23:34:24.696Z,20.08
2023-03-31T23:36:56.243Z,20.13
2023-03-31T23:39:27.878Z,21.50
2023-03-31T23:41:59.416Z,21.17
2023-03-31T23:44:30.958Z,22.02
2023-03-31T23:47:02.568Z,22.75
2023-03-31T23:49:34.099Z,19.20
2023-03-31T23:52:05.610Z,19.02
2023-03-31T23:54:37.109Z,19.45
2023-03-31T23:57:08.804Z,17.40
2023-03-31T23:59:40.345Z,15.40
